Time;durP1;ratioP1;P1;durP2;ratioP2;P2;SDS_P1;SDS_P2;PMS_P1;PMS_P2;Temp;Humidity;BMP_temperature;BMP_pressure;BME280_temperature;BME280_humidity;BME280_pressure;Samples;Min_cycle;Max_cycle;Signal;HPM_P1;HPM_P2
2023/09/27 00:01:06;;;;;;;23.77;5.63;;;16.20;99.90;;;;;;5033566;28;20045;-52
2023/09/27 00:03:33;;;;;;;23.52;5.50;;;16.20;99.90;;;;;;5033903;28;20099;-50
2023/09/27 00:06:00;;;;;;;20.38;5.60;;;16.20;99.90;;;;;;5033817;28;20042;-52
2023/09/27 00:08:27;;;;;;;23.90;6.07;;;16.20;99.90;;;;;;5033578;28;20102;-50
2023/09/27 00:10:54;;;;;;;24.88;5.90;;;16.20;99.90;;;;;;5032123;28;20100;-55
2023/09/27 00:13:21;;;;;;;23.55;5.30;;;16.20;99.90;;;;;;5034000;28;20064;-53
2023/09/27 00:15:48;;;;;;;24.45;6.20;;;16.20;99.90;;;;;;5033355;28;20044;-52
2023/09/27 00:18:15;;;;;;;19.83;5.60;;;16.10;99.90;;;;;;5033661;28;20037;-52
2023/09/27 00:20:42;;;;;;;25.15;5.82;;;16.20;99.90;;;;;;5033555;28;20436;-54
2023/09/27 00:23:09;;;;;;;23.23;6.05;;;16.20;99.90;;;;;;5033883;28;20041;-50
2023/09/27 00:25:36;;;;;;;18.95;5.47;;;16.10;99.90;;;;;;5033793;28;20037;-56
2023/09/27 00:28:03;;;;;;;22.08;5.93;;;16.10;99.90;;;;;;5033226;28;20041;-54
2023/09/27 00:30:30;;;;;;;24.75;6.38;;;16.10;99.90;;;;;;5032297;28;20124;-53
2023/09/27 00:32:57;;;;;;;20.13;5.22;;;16.00;99.90;;;;;;5032278;28;20057;-56
2023/09/27 00:35:24;;;;;;;21.15;5.60;;;16.00;99.90;;;;;;5016086;28;20044;-53
2023/09/27 00:37:51;;;;;;;24.50;5.97;;;16.00;99.90;;;;;;5033173;28;20075;-53
2023/09/27 00:40:21;;;;;;;25.27;5.50;;;16.00;99.90;;;;;;5031784;28;20037;-51
2023/09/27 00:42:48;;;;;;;23.10;5.65;;;15.90;99.90;;;;;;5032330;28;20425;-55
2023/09/27 00:45:15;;;;;;;25.00;5.65;;;15.90;99.90;;;;;;5031674;28;20042;-54
2023/09/27 00:47:42;;;;;;;21.90;5.30;;;15.80;99.90;;;;;;5033120;28;20088;-49
2023/09/27 00:50:09;;;;;;;23.25;6.22;;;15.90;99.90;;;;;;5031668;28;20504;-55
2023/09/27 00:52:36;;;;;;;19.55;5.38;;;15.80;99.90;;;;;;5033062;28;20124;-52
2023/09/27 00:55:03;;;;;;;21.88;5.82;;;15.80;99.90;;;;;;5033163;28;20121;-52
2023/09/27 00:57:30;;;;;;;18.08;5.05;;;15.70;99.90;;;;;;5032721;28;20049;-51
2023/09/27 00:59:56;;;;;;;21.55;5.25;;;15.70;99.90;;;;;;5032846;28;20042;-52
2023/09/27 01:02:23;;;;;;;21.88;5.47;;;15.70;99.90;;;;;;5031557;28;20045;-55
2023/09/27 01:04:50;;;;;;;24.75;5.60;;;15.70;99.90;;;;;;5032852;28;20546;-51
2023/09/27 01:07:17;;;;;;;26.00;5.78;;;15.80;99.90;;;;;;5031272;28;20092;-53
2023/09/27 01:09:44;;;;;;;22.33;4.63;;;15.70;99.90;;;;;;5031761;28;20050;-50
2023/09/27 01:12:11;;;;;;;20.45;5.10;;;15.70;99.90;;;;;;5031794;28;20058;-56
2023/09/27 01:14:38;;;;;;;20.38;5.20;;;15.70;99.90;;;;;;5031969;28;20061;-53
2023/09/27 01:17:04;;;;;;;27.23;5.82;;;15.70;99.90;;;;;;5032753;28;20041;-56
2023/09/27 01:19:32;;;;;;;25.35;5.18;;;15.70;99.90;;;;;;5033080;28;20037;-51
2023/09/27 01:21:59;;;;;;;23.10;5.28;;;15.70;99.90;;;;;;5032846;28;20061;-54
2023/09/27 01:24:26;;;;;;;22.30;5.32;;;15.70;99.90;;;;;;5033295;28;20044;-55
2023/09/27 01:26:53;;;;;;;26.50;5.90;;;15.70;99.90;;;;;;5032860;28;20037;-54
2023/09/27 01:29:20;;;;;;;19.55;5.20;;;15.70;99.90;;;;;;5033096;28;20033;-53
2023/09/27 01:31:47;;;;;;;22.20;5.22;;;15.70;99.90;;;;;;5032791;28;20124;-53
2023/09/27 01:34:14;;;;;;;21.38;5.88;;;15.60;99.90;;;;;;5032061;28;20080;-53
2023/09/27 01:36:42;;;;;;;22.80;6.53;;;15.60;99.90;;;;;;5032327;28;20137;-50
2023/09/27 01:39:08;;;;;;;23.92;5.10;;;15.60;99.90;;;;;;5035060;28;20041;-50
2023/09/27 01:41:35;;;;;;;20.70;5.03;;;15.60;99.90;;;;;;5035027;28;20053;-51
2023/09/27 01:44:02;;;;;;;20.80;5.10;;;15.60;99.90;;;;;;5036530;28;20041;-52
2023/09/27 01:46:29;;;;;;;22.42;5.85;;;15.60;99.90;;;;;;5034986;28;20392;-52
2023/09/27 01:48:57;;;;;;;21.90;5.40;;;15.60;99.90;;;;;;5036123;28;20037;-55
2023/09/27 01:51:24;;;;;;;25.45;4.82;;;15.50;99.90;;;;;;5035685;28;20062;-54
2023/09/27 01:53:50;;;;;;;23.50;5.13;;;15.50;99.90;;;;;;5036268;28;20049;-53
2023/09/27 01:56:17;;;;;;;21.58;5.47;;;15.50;99.90;;;;;;5035210;28;20059;-51
2023/09/27 01:58:44;;;;;;;26.10;5.50;;;15.50;99.90;;;;;;5034581;28;20049;-56
2023/09/27 02:01:11;;;;;;;23.45;5.60;;;15.40;99.90;;;;;;5034999;28;20045;-53
2023/09/27 02:03:40;;;;;;;21.05;5.47;;;15.50;99.90;;;;;;5036434;28;20076;-54
2023/09/27 02:06:07;;;;;;;22.13;5.68;;;15.50;99.90;;;;;;5036401;28;20128;-55
2023/09/27 02:08:34;;;;;;;22.70;5.88;;;15.40;99.90;;;;;;5034820;28;20053;-51
2023/09/27 02:11:01;;;;;;;23.08;5.28;;;15.50;99.90;;;;;;5036211;28;20111;-56
2023/09/27 02:13:29;;;;;;;21.13;4.60;;;15.40;99.90;;;;;;5034656;28;20194;-51
2023/09/27 02:15:56;;;;;;;23.48;5.57;;;15.40;99.90;;;;;;5034887;28;20096;-57
2023/09/27 02:18:22;;;;;;;20.58;5.05;;;15.40;99.90;;;;;;5034673;28;20037;-55
2023/09/27 02:20:49;;;;;;;21.83;4.78;;;15.40;99.90;;;;;;5034318;28;20124;-55
2023/09/27 02:23:16;;;;;;;20.52;5.05;;;15.40;99.90;;;;;;5035993;28;20117;-54
2023/09/27 02:25:43;;;;;;;18.98;5.18;;;15.40;99.90;;;;;;5036026;28;20037;-55
2023/09/27 02:28:10;;;;;;;19.02;4.40;;;15.40;99.90;;;;;;5034569;28;20038;-53
2023/09/27 02:30:37;;;;;;;19.02;4.63;;;15.40;99.90;;;;;;5034504;28;20457;-57
2023/09/27 02:33:04;;;;;;;21.80;5.43;;;15.40;99.90;;;;;;5035737;28;20128;-50
2023/09/27 02:35:31;;;;;;;21.23;5.78;;;15.30;99.90;;;;;;5035662;28;20068;-52
2023/09/27 02:37:57;;;;;;;20.90;4.80;;;15.30;99.90;;;;;;5035697;28;20037;-53
2023/09/27 02:40:24;;;;;;;23.17;5.55;;;15.30;99.90;;;;;;5034196;28;20072;-54
2023/09/27 02:42:53;;;;;;;25.63;5.70;;;15.20;99.90;;;;;;5035310;28;20049;-55
2023/09/27 02:45:20;;;;;;;24.00;5.43;;;15.20;99.90;;;;;;5034162;28;20060;-52
2023/09/27 02:47:47;;;;;;;19.70;5.35;;;15.20;99.90;;;;;;5035413;28;20073;-51
2023/09/27 02:50:33;;;;;;;19.05;5.05;;;15.10;99.90;;;;;;5033760;28;20057;-56
2023/09/27 02:53:00;;;;;;;19.67;5.00;;;15.10;99.90;;;;;;5034485;28;20509;-54
2023/09/27 02:55:27;;;;;;;21.13;5.28;;;15.00;99.90;;;;;;5035180;28;20133;-55
2023/09/27 02:57:55;;;;;;;23.48;4.88;;;15.00;99.90;;;;;;5033482;28;20051;-52
2023/09/27 03:00:22;;;;;;;22.08;5.32;;;15.00;99.90;;;;;;5033670;28;20041;-53
2023/09/27 03:02:49;;;;;;;17.30;4.95;;;15.00;99.90;;;;;;5035251;28;20042;-52
2023/09/27 03:05:17;;;;;;;19.27;4.63;;;15.00;99.90;;;;;;5035172;28;20473;-54
2023/09/27 03:07:45;;;;;;;23.58;5.07;;;15.00;99.90;;;;;;5034634;28;20053;-54
2023/09/27 03:10:12;;;;;;;21.10;5.18;;;15.00;99.90;;;;;;5033808;28;20054;-55
2023/09/27 03:12:39;;;;;;;20.67;5.32;;;14.90;99.90;;;;;;5033424;28;20045;-55
2023/09/27 03:15:10;;;;;;;18.75;5.20;;;14.90;99.90;;;;;;5034729;28;20060;-54
2023/09/27 03:17:38;;;;;;;15.77;5.13;;;15.00;99.90;;;;;;5033211;28;20464;-51
2023/09/27 03:20:14;;;;;;;24.50;5.68;;;14.90;99.90;;;;;;5033074;28;20519;-53
2023/09/27 03:22:41;;;;;;;;;;;14.90;99.90;;;;;;5034876;28;20042;-53
2023/09/27 03:25:09;;;;;;;18.80;4.72;;;15.00;99.90;;;;;;5033223;28;19924;-54
2023/09/27 03:27:36;;;;;;;18.25;5.45;;;15.00;99.90;;;;;;5016959;28;20053;-50
2023/09/27 03:30:03;;;;;;;18.48;5.30;;;15.00;99.90;;;;;;5033513;28;20041;-52
2023/09/27 03:32:33;;;;;;;20.25;5.32;;;15.00;99.90;;;;;;5033455;28;20413;-51
2023/09/27 03:35:00;;;;;;;20.05;5.32;;;15.00;99.90;;;;;;5034812;28;20527;-49
2023/09/27 03:37:28;;;;;;;15.77;4.82;;;15.00;99.90;;;;;;5033193;28;20056;-54
2023/09/27 03:39:55;;;;;;;20.15;5.10;;;15.00;99.90;;;;;;5016337;28;20049;-54
2023/09/27 03:42:22;;;;;;;14.77;5.32;;;14.90;99.90;;;;;;5034017;28;20037;-50
2023/09/27 03:44:50;;;;;;;16.60;4.97;;;14.90;99.90;;;;;;5034060;28;20378;-53
2023/09/27 03:47:17;;;;;;;23.85;5.60;;;14.90;99.90;;;;;;5032492;28;20042;-53
2023/09/27 03:49:44;;;;;;;23.30;5.45;;;14.90;99.90;;;;;;5032522;28;20523;-49
2023/09/27 03:52:11;;;;;;;21.45;5.40;;;14.90;99.90;;;;;;5033783;28;20045;-51
2023/09/27 03:54:38;;;;;;;18.63;4.82;;;14.90;99.90;;;;;;5032500;28;20523;-53
2023/09/27 03:57:05;;;;;;;18.80;5.05;;;14.90;99.90;;;;;;5032393;28;20045;-50
2023/09/27 03:59:32;;;;;;;19.85;5.55;;;14.90;99.90;;;;;;5032169;28;20041;-53
2023/09/27 04:01:59;;;;;;;24.30;5.40;;;14.90;99.90;;;;;;5032817;28;20041;-49
2023/09/27 04:04:27;;;;;;;17.35;5.53;;;15.00;99.90;;;;;;5032748;28;20532;-47
2023/09/27 04:06:54;;;;;;;22.63;5.80;;;14.90;99.90;;;;;;5032227;28;20073;-50
2023/09/27 04:09:21;;;;;;;20.67;6.22;;;14.90;99.90;;;;;;5032306;28;20037;-49
2023/09/27 04:11:48;;;;;;;19.17;6.18;;;14.90;99.90;;;;;;5032305;28;20080;-51
2023/09/27 04:14:15;;;;;;;18.42;6.18;;;14.90;99.90;;;;;;5033447;28;20043;-52
2023/09/27 04:16:42;;;;;;;20.30;6.65;;;14.90;99.90;;;;;;5033381;28;20079;-56
2023/09/27 04:19:09;;;;;;;23.15;6.88;;;15.00;99.90;;;;;;5033973;28;20099;-52
2023/09/27 04:21:36;;;;;;;14.25;6.28;;;15.00;99.90;;;;;;5033438;28;20045;-54
2023/09/27 04:24:04;;;;;;;21.35;6.93;;;15.00;99.90;;;;;;5033662;28;20480;-53
2023/09/27 04:26:31;;;;;;;17.02;6.22;;;15.00;99.90;;;;;;5033837;28;20049;-51
2023/09/27 04:29:00;;;;;;;15.35;6.32;;;15.00;99.90;;;;;;5033496;28;20101;-56
2023/09/27 04:31:27;;;;;;;22.08;7.75;;;15.10;99.90;;;;;;5033523;28;20064;-51
2023/09/27 04:33:54;;;;;;;16.35;7.18;;;15.10;99.90;;;;;;5033577;28;20103;-56
2023/09/27 04:36:21;;;;;;;23.35;7.97;;;15.10;99.90;;;;;;5033639;28;20504;-56
2023/09/27 04:38:49;;;;;;;21.25;8.38;;;15.10;99.90;;;;;;5033476;28;20042;-51
2023/09/27 04:41:16;;;;;;;18.88;7.93;;;15.10;99.90;;;;;;5033503;28;20041;-56
2023/09/27 04:43:42;;;;;;;22.65;8.45;;;15.10;99.90;;;;;;5033306;28;20393;-52
2023/09/27 04:46:09;;;;;;;19.75;7.25;;;15.20;99.90;;;;;;5033172;28;20116;-53
2023/09/27 04:48:36;;;;;;;20.85;7.70;;;15.10;99.90;;;;;;5033272;28;20051;-53
2023/09/27 04:51:03;;;;;;;23.65;8.10;;;15.10;99.90;;;;;;5033201;28;20132;-54
2023/09/27 04:53:37;;;;;;;22.20;7.47;;;15.10;99.90;;;;;;5033768;28;20073;-54
2023/09/27 04:56:04;;;;;;;19.13;6.50;;;15.10;99.90;;;;;;5032067;28;20065;-51
2023/09/27 04:58:31;;;;;;;22.52;7.50;;;15.10;99.90;;;;;;5032954;28;20117;-56
2023/09/27 05:00:58;;;;;;;20.88;6.95;;;15.20;99.90;;;;;;5033055;28;20448;-52
2023/09/27 05:03:25;;;;;;;23.05;7.18;;;15.10;99.90;;;;;;5033044;28;20036;-53
2023/09/27 05:05:53;;;;;;;18.98;6.82;;;15.10;99.90;;;;;;5033069;28;20046;-49
2023/09/27 05:08:19;;;;;;;22.17;7.50;;;15.20;99.90;;;;;;5032314;28;20033;-51
2023/09/27 05:10:46;;;;;;;23.70;7.60;;;15.20;99.90;;;;;;5033216;28;20041;-52
2023/09/27 05:13:13;;;;;;;21.80;6.40;;;15.20;99.90;;;;;;5035587;28;20178;-52
2023/09/27 05:15:40;;;;;;;19.42;7.43;;;15.20;99.90;;;;;;5037066;28;20481;-55
2023/09/27 05:18:07;;;;;;;19.85;6.90;;;15.20;99.90;;;;;;5037180;28;20477;-53
2023/09/27 05:20:34;;;;;;;23.65;6.72;;;15.20;99.90;;;;;;5036636;28;20037;-52
2023/09/27 05:23:00;;;;;;;20.35;6.10;;;15.30;99.90;;;;;;5037375;28;20042;-52
2023/09/27 05:25:27;;;;;;;17.83;6.57;;;15.30;99.90;;;;;;5036975;28;20041;-52
2023/09/27 05:27:56;;;;;;;21.23;7.03;;;15.30;99.90;;;;;;5035483;28;20037;-52
2023/09/27 05:30:23;;;;;;;18.98;6.45;;;15.30;99.90;;;;;;5035641;28;20057;-54
2023/09/27 05:32:49;;;;;;;18.23;6.53;;;15.30;99.90;;;;;;5036688;28;20044;-55
2023/09/27 05:35:16;;;;;;;22.48;6.35;;;15.30;99.90;;;;;;5035494;28;20077;-51
2023/09/27 05:37:44;;;;;;;20.92;6.68;;;15.40;99.90;;;;;;5036516;28;20041;-53
2023/09/27 05:40:11;;;;;;;21.85;6.82;;;15.40;99.90;;;;;;5035583;28;20048;-54
2023/09/27 05:42:38;;;;;;;22.80;6.50;;;15.30;99.90;;;;;;5036509;28;20042;-52
2023/09/27 05:45:05;;;;;;;124.03;63.53;;;15.30;99.90;;;;;;5036452;28;20116;-53
2023/09/27 05:47:32;;;;;;;27.25;7.85;;;15.30;99.90;;;;;;5036214;28;20080;-53
2023/09/27 05:49:59;;;;;;;20.98;7.07;;;15.30;99.90;;;;;;5035997;28;20048;-51
2023/09/27 05:52:27;;;;;;;18.77;6.78;;;15.30;99.90;;;;;;5036527;28;20076;-54
2023/09/27 05:54:54;;;;;;;25.23;7.20;;;15.30;99.90;;;;;;5036609;28;20503;-53
2023/09/27 05:57:22;;;;;;;19.92;6.93;;;15.30;99.90;;;;;;5035998;28;20045;-55
2023/09/27 05:59:49;;;;;;;19.73;7.47;;;15.30;99.90;;;;;;5036290;28;20096;-50
2023/09/27 06:02:20;;;;;;;17.95;6.75;;;15.30;99.90;;;;;;5034733;28;20045;-52
2023/09/27 06:04:47;;;;;;;21.40;7.25;;;15.30;99.90;;;;;;5036024;28;20095;-54
2023/09/27 06:07:14;;;;;;;17.77;6.60;;;15.30;99.90;;;;;;5035828;28;20038;-48
2023/09/27 06:09:41;;;;;;;21.45;7.15;;;15.30;99.90;;;;;;5036128;28;20056;-52
2023/09/27 06:12:08;;;;;;;19.35;6.57;;;15.30;99.90;;;;;;5036353;28;20065;-49
2023/09/27 06:14:35;;;;;;;21.77;6.50;;;15.30;99.90;;;;;;5036014;28;20057;-53
2023/09/27 06:17:02;;;;;;;20.92;6.00;;;15.30;99.90;;;;;;5035728;28;20046;-55
2023/09/27 06:19:30;;;;;;;18.33;6.20;;;15.30;99.90;;;;;;5036166;28;20073;-49
2023/09/27 06:21:58;;;;;;;19.85;6.25;;;15.30;99.90;;;;;;5035556;28;20063;-55
2023/09/27 06:24:26;;;;;;;18.33;6.18;;;15.30;99.90;;;;;;5034089;28;20485;-53
2023/09/27 06:26:52;;;;;;;22.17;6.70;;;15.30;99.90;;;;;;5035412;28;20100;-51
2023/09/27 06:29:20;;;;;;;16.30;6.30;;;15.30;99.90;;;;;;5035833;28;20042;-50
2023/09/27 06:31:47;;;;;;;20.65;6.00;;;15.30;99.90;;;;;;5035431;28;20045;-54
2023/09/27 06:34:17;;;;;;;15.15;5.72;;;15.30;99.90;;;;;;5036059;28;20120;-50
2023/09/27 06:36:44;;;;;;;19.27;6.20;;;15.30;99.90;;;;;;5034057;28;20052;-52
2023/09/27 06:39:13;;;;;;;16.15;6.32;;;15.30;99.90;;;;;;5035764;28;20049;-51
2023/09/27 06:41:40;;;;;;;17.63;5.93;;;15.30;99.90;;;;;;5035036;28;20048;-50
2023/09/27 06:44:08;;;;;;;14.30;5.53;;;15.30;99.90;;;;;;5035778;28;20492;-54
2023/09/27 06:46:35;;;;;;;17.17;6.65;;;15.40;99.90;;;;;;5035392;28;20408;-53
2023/09/27 06:49:15;;;;;;;17.52;6.30;;;15.40;99.90;;;;;;5035712;28;20065;-49
2023/09/27 06:51:43;;;;;;;18.55;6.13;;;15.40;99.90;;;;;;5031136;28;20057;-49
2023/09/27 06:54:10;;;;;;;18.52;5.82;;;15.50;99.90;;;;;;5033739;28;20488;-54
2023/09/27 06:56:37;;;;;;;15.07;5.85;;;15.50;99.90;;;;;;5033368;28;20053;-54
2023/09/27 06:59:05;;;;;;;16.83;5.80;;;15.60;99.90;;;;;;5032560;28;20045;-51
2023/09/27 07:01:32;;;;;;;14.23;5.43;;;15.70;99.90;;;;;;5034062;28;20046;-52
2023/09/27 07:03:59;;;;;;;18.42;6.00;;;15.80;99.90;;;;;;5033160;28;20029;-55
2023/09/27 07:06:26;;;;;;;16.30;5.57;;;15.80;99.90;;;;;;5034335;28;20140;-54
2023/09/27 07:08:57;;;;;;;17.52;4.70;;;15.90;99.90;;;;;;5033951;28;20108;-53
2023/09/27 07:11:25;;;;;;;17.20;5.32;;;16.00;99.90;;;;;;5033153;28;20087;-55
2023/09/27 07:13:52;;;;;;;18.65;5.28;;;16.20;99.90;;;;;;5034057;28;20129;-54
2023/09/27 07:16:20;;;;;;;11.52;4.63;;;16.20;99.90;;;;;;5033815;28;20049;-53
2023/09/27 07:18:48;;;;;;;17.00;4.70;;;16.30;99.90;;;;;;5032929;28;20095;-55
2023/09/27 07:21:15;;;;;;;15.00;4.78;;;16.40;99.90;;;;;;5033823;28;20064;-53
2023/09/27 07:23:42;;;;;;;17.13;5.15;;;16.50;99.90;;;;;;5032655;28;20047;-53
2023/09/27 07:26:09;;;;;;;19.67;5.88;;;16.50;99.90;;;;;;5033827;28;20124;-51
2023/09/27 07:28:36;;;;;;;16.08;5.63;;;16.60;99.90;;;;;;5028387;28;20048;-49
2023/09/27 07:31:04;;;;;;;18.88;5.82;;;16.70;99.90;;;;;;5035077;28;20046;-56
2023/09/27 07:33:31;;;;;;;19.20;7.70;;;16.80;99.90;;;;;;5033650;28;20542;-55
2023/09/27 07:35:58;;;;;;;26.77;13.45;;;16.90;99.90;;;;;;5015918;28;20408;-54
2023/09/27 07:38:26;;;;;;;29.38;15.57;;;16.90;99.90;;;;;;5038014;28;20049;-51
2023/09/27 07:40:53;;;;;;;24.30;14.10;;;17.00;99.90;;;;;;5033562;28;20045;-51
2023/09/27 07:43:19;;;;;;;25.40;13.35;;;17.00;99.90;;;;;;5033512;28;20044;-54
2023/09/27 07:45:47;;;;;;;26.33;14.35;;;17.10;99.90;;;;;;5033700;28;20151;-54
2023/09/27 07:48:14;;;;;;;27.00;14.23;;;17.20;99.90;;;;;;5033139;28;20037;-54
2023/09/27 07:50:41;;;;;;;24.85;9.48;;;17.20;99.90;;;;;;5032934;28;20054;-49
2023/09/27 07:53:08;;;;;;;20.80;9.52;;;17.20;99.90;;;;;;5033336;28;20120;-48
2023/09/27 07:55:35;;;;;;;18.75;8.68;;;17.30;99.90;;;;;;5031890;28;20068;-53
2023/09/27 07:58:03;;;;;;;17.00;8.60;;;17.30;99.90;;;;;;5032956;28;20043;-51
2023/09/27 08:00:33;;;;;;;20.65;10.02;;;17.30;99.90;;;;;;5030263;28;20361;-53
2023/09/27 08:03:03;;;;;;;21.73;10.35;;;17.40;99.90;;;;;;5033283;28;20437;-52
2023/09/27 08:05:31;;;;;;;20.75;9.48;;;17.40;99.90;;;;;;5036928;28;20068;-51
2023/09/27 08:07:58;;;;;;;21.17;6.70;;;17.30;99.90;;;;;;5033333;28;20500;-53
2023/09/27 08:10:25;;;;;;;13.40;5.32;;;17.30;99.90;;;;;;5032074;28;20118;-54
2023/09/27 08:12:51;;;;;;;11.32;5.00;;;17.40;99.90;;;;;;5032765;28;20044;-51
2023/09/27 08:15:18;;;;;;;16.67;5.82;;;17.40;99.90;;;;;;5032383;28;20056;-52
2023/09/27 08:17:47;;;;;;;12.45;5.40;;;17.50;99.90;;;;;;5032688;28;20045;-52
2023/09/27 08:20:14;;;;;;;16.10;5.78;;;17.60;99.90;;;;;;5032856;28;20041;-52
2023/09/27 08:22:42;;;;;;;10.75;4.80;;;17.60;99.90;;;;;;5032891;28;20133;-53
2023/09/27 08:25:14;;;;;;;13.80;5.32;;;17.60;99.90;;;;;;5032711;28;20053;-54
2023/09/27 08:27:42;;;;;;;13.73;4.80;;;17.70;99.90;;;;;;5033093;28;20465;-53
2023/09/27 08:30:09;;;;;;;14.23;5.25;;;17.80;99.90;;;;;;5032911;28;20397;-52
2023/09/27 08:32:38;;;;;;;19.00;5.95;;;17.80;99.90;;;;;;5032818;28;20129;-53
2023/09/27 08:35:05;;;;;;;14.88;5.43;;;17.80;99.90;;;;;;5032628;28;20125;-53
2023/09/27 08:37:32;;;;;;;15.30;5.63;;;17.90;99.90;;;;;;5032226;28;20404;-54
2023/09/27 08:39:58;;;;;;;18.25;5.20;;;17.90;99.90;;;;;;5032819;28;20056;-54
2023/09/27 08:42:25;;;;;;;17.42;6.03;;;18.00;99.90;;;;;;5031380;28;20527;-50
2023/09/27 08:44:52;;;;;;;13.60;4.85;;;18.00;99.90;;;;;;5032732;28;20041;-55
2023/09/27 08:47:19;;;;;;;13.77;4.45;;;18.00;99.90;;;;;;5024519;28;20489;-55
2023/09/27 08:49:49;;;;;;;12.18;4.30;;;18.10;99.90;;;;;;5026218;28;20042;-55
2023/09/27 08:52:16;;;;;;;18.00;5.22;;;18.10;99.90;;;;;;5032368;28;20510;-55
2023/09/27 08:54:43;;;;;;;15.35;5.75;;;18.10;99.90;;;;;;5032544;28;20041;-56
2023/09/27 08:57:10;;;;;;;12.43;4.32;;;18.10;99.90;;;;;;5032111;28;20046;-50
2023/09/27 08:59:38;;;;;;;11.55;3.72;;;18.20;99.90;;;;;;5026028;28;20060;-53
2023/09/27 09:02:05;;;;;;;12.60;4.45;;;18.20;99.90;;;;;;5025200;28;20124;-48
2023/09/27 09:04:35;;;;;;;14.02;4.13;;;18.20;99.90;;;;;;5032348;28;20447;-49
2023/09/27 09:07:02;;;;;;;9.75;3.53;;;18.30;99.90;;;;;;5026187;28;20489;-54
2023/09/27 09:09:30;;;;;;;13.13;4.15;;;18.40;99.90;;;;;;5032662;28;20037;-53
2023/09/27 09:11:58;;;;;;;15.05;4.57;;;18.50;99.90;;;;;;5032495;28;20532;-52
2023/09/27 09:14:25;;;;;;;14.68;4.70;;;18.50;99.90;;;;;;5032414;28;20042;-55
2023/09/27 09:16:51;;;;;;;16.27;4.85;;;18.60;99.90;;;;;;5032208;28;20041;-53
2023/09/27 09:19:25;;;;;;;15.18;4.72;;;18.60;99.90;;;;;;5032192;28;20049;-48
2023/09/27 09:22:09;;;;;;;11.93;4.38;;;18.60;99.90;;;;;;5032439;28;20046;-52
2023/09/27 09:24:36;;;;;;;12.38;3.70;;;18.70;99.90;;;;;;5032587;28;20033;-54
2023/09/27 09:27:03;;;;;;;13.52;3.45;;;18.80;99.90;;;;;;5032376;28;20048;-56
2023/09/27 09:29:30;;;;;;;12.32;3.78;;;18.80;99.90;;;;;;5031735;28;20092;-50
2023/09/27 09:31:58;;;;;;;12.05;3.75;;;18.90;99.90;;;;;;5031992;28;20116;-51
2023/09/27 09:34:25;;;;;;;15.70;3.80;;;19.00;99.90;;;;;;5031123;28;20046;-53
2023/09/27 09:36:52;;;;;;;12.35;3.67;;;19.00;99.90;;;;;;5032222;28;20128;-51
2023/09/27 09:39:19;;;;;;;12.07;3.50;;;19.10;99.90;;;;;;5032613;28;20446;-54
2023/09/27 09:41:46;;;;;;;13.13;3.75;;;19.10;99.90;;;;;;5032439;28;20061;-54
2023/09/27 09:44:13;;;;;;;14.20;4.07;;;19.10;99.90;;;;;;5032341;28;20037;-53
2023/09/27 09:46:40;;;;;;;16.33;4.10;;;19.10;99.90;;;;;;5032436;28;20400;-51
2023/09/27 09:49:10;;;;;;;10.60;3.38;;;19.10;99.90;;;;;;5032005;28;20037;-54
2023/09/27 09:51:37;;;;;;;12.07;3.35;;;19.10;99.90;;;;;;5032266;28;20058;-53
2023/09/27 09:54:05;;;;;;;12.77;3.30;;;19.10;99.90;;;;;;5032746;28;20099;-54
2023/09/27 09:56:34;;;;;;;10.23;2.95;;;19.10;99.90;;;;;;5028816;28;20046;-51
2023/09/27 09:59:13;;;;;;;11.35;3.15;;;19.10;99.90;;;;;;5034243;28;20120;-49
2023/09/27 10:01:39;;;;;;;9.40;3.10;;;19.10;99.90;;;;;;5034902;28;20034;-47
2023/09/27 10:04:07;;;;;;;10.60;3.30;;;19.20;99.90;;;;;;5035474;28;20049;-55
2023/09/27 10:06:34;;;;;;;10.25;3.10;;;19.20;99.90;;;;;;5035539;28;20041;-51
2023/09/27 10:09:14;;;;;;;11.75;3.58;;;19.30;99.90;;;;;;5035377;28;20456;-50
2023/09/27 10:11:42;;;;;;;8.68;3.17;;;19.30;99.90;;;;;;5029088;28;20392;-50
2023/09/27 10:14:10;;;;;;;11.73;3.33;;;19.40;99.90;;;;;;5029150;28;20049;-56
2023/09/27 10:16:37;;;;;;;11.65;3.00;;;19.50;99.90;;;;;;5029120;28;20045;-53
2023/09/27 10:19:22;;;;;;;;;;;19.60;99.90;;;;;;5032211;28;20068;-54
2023/09/27 10:21:49;;;;;;;11.15;2.78;;;19.80;99.90;;;;;;5035391;28;20009;-52
2023/09/27 10:24:16;;;;;;;6.22;2.50;;;19.80;99.90;;;;;;5035268;28;20042;-53
2023/09/27 10:26:42;;;;;;;10.63;3.20;;;19.80;99.90;;;;;;5033815;28;20045;-56
2023/09/27 10:29:10;;;;;;;6.68;2.67;;;19.80;99.90;;;;;;5035299;28;20041;-50
2023/09/27 10:31:38;;;;;;;8.20;3.03;;;19.80;99.90;;;;;;5034922;28;20476;-53
2023/09/27 10:34:05;;;;;;;8.88;2.90;;;19.80;99.90;;;;;;5034117;28;20072;-50
2023/09/27 10:36:34;;;;;;;6.40;2.67;;;19.90;99.90;;;;;;5035066;28;20052;-52
2023/09/27 10:39:01;;;;;;;7.45;2.90;;;19.90;99.90;;;;;;5033442;28;20085;-51
2023/09/27 10:41:28;;;;;;;7.63;2.70;;;19.90;99.90;;;;;;5034530;28;20040;-52
2023/09/27 10:43:55;;;;;;;9.55;2.53;;;20.00;99.90;;;;;;5034777;28;20416;-54
2023/09/27 10:46:21;;;;;;;7.75;2.95;;;20.00;99.90;;;;;;5034896;28;20378;-53
2023/09/27 10:48:48;;;;;;;8.40;3.00;;;20.10;99.90;;;;;;5034474;28;20112;-50
2023/09/27 10:51:15;;;;;;;10.00;3.20;;;20.10;99.90;;;;;;5034476;28;20405;-49
2023/09/27 10:53:45;;;;;;;10.30;3.10;;;20.20;99.90;;;;;;5034623;28;20072;-52
2023/09/27 10:56:12;;;;;;;9.90;2.97;;;20.30;99.90;;;;;;5033666;28;20041;-55
2023/09/27 10:58:39;;;;;;;7.30;3.22;;;20.30;99.90;;;;;;5034308;28;20084;-50
2023/09/27 11:01:05;;;;;;;7.50;2.65;;;20.40;99.90;;;;;;5034449;28;20092;-53
2023/09/27 11:03:33;;;;;;;8.18;2.95;;;20.40;99.90;;;;;;5034043;28;20041;-58
2023/09/27 11:06:00;;;;;;;9.98;3.13;;;20.50;99.90;;;;;;5034478;28;20091;-57
2023/09/27 11:08:27;;;;;;;6.32;2.70;;;20.60;99.90;;;;;;5028568;28;20038;-54
2023/09/27 11:10:56;;;;;;;7.07;2.65;;;20.70;99.90;;;;;;5034076;28;20037;-57
2023/09/27 11:13:25;;;;;;;8.63;2.72;;;20.80;99.90;;;;;;5033991;28;20059;-48
2023/09/27 11:15:51;;;;;;;7.40;2.65;;;20.90;99.90;;;;;;5032083;28;20037;-52
2023/09/27 11:18:18;;;;;;;7.10;2.85;;;20.90;99.90;;;;;;5034323;28;20053;-57
2023/09/27 11:20:45;;;;;;;8.38;2.90;;;21.00;99.90;;;;;;5034358;28;20120;-54
2023/09/27 11:23:12;;;;;;;6.78;2.20;;;21.10;99.90;;;;;;5034296;28;20041;-52
2023/09/27 11:25:41;;;;;;;7.55;2.42;;;21.10;99.90;;;;;;5031975;28;20052;-54
2023/09/27 11:28:12;;;;;;;4.78;2.50;;;21.20;99.90;;;;;;5033987;28;20041;-54
2023/09/27 11:30:39;;;;;;;7.97;2.72;;;21.20;99.90;;;;;;5033276;28;20598;-57
2023/09/27 11:33:06;;;;;;;7.40;2.35;;;21.30;99.90;;;;;;5034533;28;20483;-49
2023/09/27 11:35:33;;;;;;;9.57;2.72;;;21.30;99.90;;;;;;5034228;28;20046;-52
2023/09/27 11:38:00;;;;;;;6.63;2.63;;;21.40;99.90;;;;;;5033339;28;20037;-52
2023/09/27 11:40:27;;;;;;;8.35;3.20;;;21.40;99.90;;;;;;5032882;28;20041;-52
2023/09/27 11:42:53;;;;;;;5.70;2.47;;;21.50;99.90;;;;;;5033253;28;20029;-55
2023/09/27 11:45:20;;;;;;;6.88;2.28;;;21.50;99.90;;;;;;5033877;28;20384;-51
2023/09/27 11:47:47;;;;;;;5.75;2.50;;;21.50;99.90;;;;;;5032846;28;20452;-53
2023/09/27 11:50:14;;;;;;;6.13;2.58;;;21.60;99.90;;;;;;5032325;28;20136;-52
2023/09/27 11:52:43;;;;;;;9.07;2.40;;;21.60;99.90;;;;;;5034187;28;20049;-53
2023/09/27 11:55:09;;;;;;;5.25;2.30;;;21.60;99.90;;;;;;5032746;28;20041;-55
2023/09/27 11:57:36;;;;;;;8.05;2.67;;;21.70;99.90;;;;;;5033689;28;20049;-56
2023/09/27 12:00:06;;;;;;;6.85;2.25;;;21.80;99.90;;;;;;5033174;28;20049;-55
2023/09/27 12:02:33;;;;;;;6.63;2.53;;;21.80;99.90;;;;;;5038456;28;20389;-50
2023/09/27 12:05:00;;;;;;;6.07;2.35;;;21.90;99.90;;;;;;5033506;28;20091;-47
2023/09/27 12:07:27;;;;;;;6.53;2.50;;;21.90;99.90;;;;;;5033029;28;20513;-49
2023/09/27 12:09:54;;;;;;;5.65;2.35;;;21.90;99.90;;;;;;5033472;28;20045;-53
2023/09/27 12:12:21;;;;;;;6.43;2.33;;;21.90;99.90;;;;;;5032659;28;20065;-55
2023/09/27 12:14:49;;;;;;;6.43;2.55;;;21.90;99.90;;;;;;5033727;28;20075;-50
2023/09/27 12:17:16;;;;;;;7.63;2.42;;;21.80;99.90;;;;;;5032919;28;20064;-53
2023/09/27 12:19:45;;;;;;;7.35;2.40;;;21.80;99.90;;;;;;5033454;28;20060;-52
2023/09/27 12:22:12;;;;;;;9.70;2.53;;;21.80;99.90;;;;;;5032803;28;20043;-47
2023/09/27 12:24:38;;;;;;;5.80;2.53;;;21.90;99.90;;;;;;5021732;28;20037;-51
2023/09/27 12:27:06;;;;;;;5.13;2.25;;;21.90;99.90;;;;;;5033315;28;20056;-54
2023/09/27 12:29:32;;;;;;;5.68;2.40;;;21.90;99.90;;;;;;5031726;28;20236;-55
2023/09/27 12:32:00;;;;;;;7.07;2.40;;;22.00;99.90;;;;;;5036745;28;20052;-55
2023/09/27 12:34:28;;;;;;;7.38;2.60;;;22.00;99.90;;;;;;5033046;28;20048;-53
2023/09/27 12:36:56;;;;;;;5.75;2.30;;;21.90;99.90;;;;;;5029659;28;20106;-53
2023/09/27 12:39:23;;;;;;;4.43;2.03;;;21.80;99.90;;;;;;5033342;28;20048;-56